SEMZZ ESSB-EFMA
Flight info
| Callsign | SEMZZ |
|---|---|
| Flight time | 0h 54m |
| Altitude | 5000 |
| Route | TOVRI N851 RIKUM |
| Aircraft | DR40/L-SFG/C |
Departure
| Time | 2026-04-25 19:34 |
|---|---|
| Airport | Stockholm-Bromma Airport (ESSB) |
Arrival
| Time | 2026-04-25 20:28 |
|---|---|
| Airport | Mariehamn Airport (EFMA) |
| Time | Latitude | Longitude | Altitude | Speed | Heading |
|---|---|---|---|---|---|
| 2026-04-25 19:21 | 59.35920 | 17.93725 | 31 ft | 0 kts | 234° |
| 2026-04-25 19:29 | 59.35920 | 17.93724 | 31 ft | 0 kts | 226° |
| 2026-04-25 19:29 | 59.35890 | 17.93730 | 31 ft | 8 kts | 168° |
| 2026-04-25 19:30 | 59.35829 | 17.93782 | 30 ft | 11 kts | 157° |
| 2026-04-25 19:30 | 59.35770 | 17.93887 | 28 ft | 12 kts | 170° |
| 2026-04-25 19:30 | 59.35704 | 17.93955 | 27 ft | 12 kts | 125° |
| 2026-04-25 19:30 | 59.35664 | 17.94069 | 26 ft | 12 kts | 123° |
| 2026-04-25 19:31 | 59.35599 | 17.94144 | 25 ft | 13 kts | 166° |
| 2026-04-25 19:31 | 59.35533 | 17.94239 | 25 ft | 12 kts | 124° |
| 2026-04-25 19:31 | 59.35486 | 17.94372 | 26 ft | 13 kts | 124° |
| 2026-04-25 19:31 | 59.35432 | 17.94526 | 27 ft | 12 kts | 124° |
| 2026-04-25 19:32 | 59.35388 | 17.94653 | 29 ft | 12 kts | 124° |
| 2026-04-25 19:32 | 59.35342 | 17.94786 | 31 ft | 11 kts | 124° |
| 2026-04-25 19:32 | 59.35308 | 17.94924 | 34 ft | 11 kts | 96° |
| 2026-04-25 19:32 | 59.35303 | 17.95022 | 36 ft | 10 kts | 96° |
| 2026-04-25 19:33 | 59.35241 | 17.95082 | 36 ft | 10 kts | 220° |
| 2026-04-25 19:33 | 59.35173 | 17.94989 | 35 ft | 11 kts | 219° |
| 2026-04-25 19:33 | 59.35201 | 17.94821 | 33 ft | 31 kts | 304° |
| 2026-04-25 19:33 | 59.35412 | 17.94199 | 152 ft | 69 kts | 308° |
| 2026-04-25 19:34 | 59.35696 | 17.93349 | 444 ft | 76 kts | 308° |
| 2026-04-25 19:34 | 59.35881 | 17.92399 | 799 ft | 82 kts | 274° |
| 2026-04-25 19:34 | 59.35595 | 17.91387 | 1141 ft | 96 kts | 226° |
| 2026-04-25 19:34 | 59.35009 | 17.90647 | 1427 ft | 104 kts | 216° |
| 2026-04-25 19:35 | 59.34273 | 17.90422 | 1720 ft | 112 kts | 166° |
| 2026-04-25 19:35 | 59.33627 | 17.91177 | 2015 ft | 108 kts | 120° |
| 2026-04-25 19:35 | 59.33262 | 17.92368 | 2321 ft | 97 kts | 83° |
| 2026-04-25 19:35 | 59.33361 | 17.93509 | 2646 ft | 81 kts | 48° |
| 2026-04-25 19:36 | 59.33582 | 17.94508 | 2965 ft | 80 kts | 46° |
| 2026-04-25 19:36 | 59.33810 | 17.95504 | 3264 ft | 82 kts | 46° |
| 2026-04-25 19:36 | 59.34046 | 17.96528 | 3545 ft | 84 kts | 46° |
| 2026-04-25 19:36 | 59.34280 | 17.97559 | 3818 ft | 85 kts | 46° |
| 2026-04-25 19:37 | 59.34518 | 17.98618 | 4109 ft | 85 kts | 46° |
| 2026-04-25 19:37 | 59.34750 | 17.99658 | 4386 ft | 84 kts | 45° |
| 2026-04-25 19:37 | 59.35090 | 18.00467 | 4668 ft | 76 kts | 27° |
| 2026-04-25 19:37 | 59.35471 | 18.01195 | 4933 ft | 77 kts | 27° |
| 2026-04-25 19:38 | 59.35845 | 18.01920 | 5040 ft | 77 kts | 27° |
| 2026-04-25 19:38 | 59.36239 | 18.02663 | 5050 ft | 80 kts | 28° |
| 2026-04-25 19:38 | 59.36649 | 18.03444 | 5053 ft | 83 kts | 28° |
| 2026-04-25 19:38 | 59.37065 | 18.04236 | 5056 ft | 84 kts | 28° |
| 2026-04-25 19:39 | 59.37489 | 18.05038 | 5055 ft | 84 kts | 28° |
| 2026-04-25 19:39 | 59.37907 | 18.05831 | 5045 ft | 84 kts | 30° |
| 2026-04-25 19:39 | 59.38327 | 18.06630 | 5053 ft | 82 kts | 28° |
| 2026-04-25 19:39 | 59.38739 | 18.07412 | 5058 ft | 83 kts | 28° |
| 2026-04-25 19:40 | 59.39159 | 18.08197 | 5053 ft | 83 kts | 28° |
| 2026-04-25 19:40 | 59.39575 | 18.08979 | 5050 ft | 83 kts | 28° |
| 2026-04-25 19:40 | 59.39988 | 18.09760 | 5044 ft | 83 kts | 28° |
| 2026-04-25 19:40 | 59.40403 | 18.10542 | 5041 ft | 82 kts | 28° |
| 2026-04-25 19:41 | 59.40821 | 18.11326 | 5043 ft | 82 kts | 28° |
| 2026-04-25 19:41 | 59.41232 | 18.12101 | 5042 ft | 83 kts | 28° |
| 2026-04-25 19:41 | 59.41676 | 18.12916 | 4834 ft | 98 kts | 30° |
| 2026-04-25 19:41 | 59.42008 | 18.13536 | 4756 ft | 97 kts | 31° |
| 2026-04-25 19:42 | 59.42625 | 18.14728 | 4749 ft | 92 kts | 30° |
| 2026-04-25 19:42 | 59.43082 | 18.15594 | 4749 ft | 91 kts | 30° |
| 2026-04-25 19:42 | 59.43538 | 18.16458 | 4747 ft | 91 kts | 29° |
| 2026-04-25 19:42 | 59.44001 | 18.17329 | 4747 ft | 92 kts | 30° |
| 2026-04-25 19:43 | 59.44460 | 18.18203 | 4747 ft | 93 kts | 32° |
| 2026-04-25 19:43 | 59.44875 | 18.19217 | 4749 ft | 94 kts | 34° |
| 2026-04-25 19:43 | 59.45306 | 18.20172 | 4751 ft | 95 kts | 32° |
| 2026-04-25 19:43 | 59.45770 | 18.21132 | 4750 ft | 97 kts | 32° |
| 2026-04-25 19:44 | 59.46241 | 18.22072 | 4748 ft | 97 kts | 31° |
| 2026-04-25 19:44 | 59.46722 | 18.23009 | 4745 ft | 97 kts | 31° |
| 2026-04-25 19:44 | 59.47208 | 18.23944 | 4745 ft | 96 kts | 30° |
| 2026-04-25 19:44 | 59.47687 | 18.24859 | 4745 ft | 96 kts | 30° |
| 2026-04-25 19:45 | 59.48173 | 18.25773 | 4747 ft | 96 kts | 30° |
| 2026-04-25 19:45 | 59.48653 | 18.26679 | 4750 ft | 96 kts | 30° |
| 2026-04-25 19:45 | 59.49144 | 18.27603 | 4750 ft | 97 kts | 30° |
| 2026-04-25 19:45 | 59.49627 | 18.28511 | 4751 ft | 97 kts | 30° |
| 2026-04-25 19:46 | 59.50114 | 18.29426 | 4751 ft | 97 kts | 30° |
| 2026-04-25 19:46 | 59.50605 | 18.30348 | 4751 ft | 97 kts | 30° |
| 2026-04-25 19:46 | 59.51098 | 18.31277 | 4751 ft | 97 kts | 30° |
| 2026-04-25 19:46 | 59.51581 | 18.32187 | 4750 ft | 97 kts | 30° |
| 2026-04-25 19:47 | 59.52068 | 18.33103 | 4749 ft | 97 kts | 29° |
| 2026-04-25 19:47 | 59.52557 | 18.34026 | 4748 ft | 96 kts | 30° |
| 2026-04-25 19:47 | 59.53040 | 18.34936 | 4746 ft | 96 kts | 30° |
| 2026-04-25 19:47 | 59.53524 | 18.35844 | 4745 ft | 96 kts | 30° |
| 2026-04-25 19:48 | 59.54008 | 18.36757 | 4745 ft | 96 kts | 30° |
| 2026-04-25 19:48 | 59.54489 | 18.37661 | 4744 ft | 96 kts | 30° |
| 2026-04-25 19:48 | 59.54960 | 18.38554 | 4744 ft | 96 kts | 29° |
| 2026-04-25 19:48 | 59.55447 | 18.39471 | 4743 ft | 96 kts | 30° |
| 2026-04-25 19:49 | 59.55927 | 18.40375 | 4744 ft | 96 kts | 30° |
| 2026-04-25 19:49 | 59.56248 | 18.40980 | 4745 ft | 96 kts | 30° |
| 2026-04-25 19:49 | 59.56892 | 18.42200 | 4745 ft | 96 kts | 30° |
| 2026-04-25 19:49 | 59.57375 | 18.43112 | 4746 ft | 96 kts | 29° |
| 2026-04-25 19:50 | 59.58337 | 18.44929 | 4744 ft | 96 kts | 30° |
| 2026-04-25 19:50 | 59.58820 | 18.45846 | 4743 ft | 96 kts | 29° |
| 2026-04-25 19:50 | 59.59302 | 18.46759 | 4740 ft | 96 kts | 29° |
| 2026-04-25 19:51 | 59.59786 | 18.47673 | 4739 ft | 96 kts | 29° |
| 2026-04-25 19:51 | 59.60265 | 18.48582 | 4737 ft | 96 kts | 29° |
| 2026-04-25 19:51 | 59.60754 | 18.49509 | 4734 ft | 96 kts | 29° |
| 2026-04-25 19:51 | 59.61234 | 18.50420 | 4733 ft | 96 kts | 30° |
| 2026-04-25 19:52 | 59.61712 | 18.51327 | 4732 ft | 96 kts | 29° |
| 2026-04-25 19:52 | 59.62194 | 18.52241 | 4730 ft | 96 kts | 29° |
| 2026-04-25 19:52 | 59.62674 | 18.53152 | 4729 ft | 95 kts | 29° |
| 2026-04-25 19:52 | 59.63149 | 18.54057 | 4728 ft | 95 kts | 29° |
| 2026-04-25 19:53 | 59.63629 | 18.54966 | 4725 ft | 95 kts | 29° |
| 2026-04-25 19:53 | 59.64103 | 18.55866 | 4728 ft | 95 kts | 29° |
| 2026-04-25 19:53 | 59.64581 | 18.56776 | 4727 ft | 95 kts | 29° |
| 2026-04-25 19:53 | 59.65056 | 18.57681 | 4729 ft | 95 kts | 29° |
| 2026-04-25 19:54 | 59.65528 | 18.58580 | 4732 ft | 95 kts | 29° |
| 2026-04-25 19:54 | 59.66006 | 18.59486 | 4735 ft | 95 kts | 29° |
| 2026-04-25 19:54 | 59.66486 | 18.60402 | 4740 ft | 95 kts | 29° |
| 2026-04-25 19:54 | 59.66804 | 18.61008 | 4736 ft | 95 kts | 29° |
| 2026-04-25 19:55 | 59.67439 | 18.62219 | 4735 ft | 95 kts | 30° |
| 2026-04-25 19:55 | 59.67907 | 18.63116 | 4731 ft | 93 kts | 28° |
| 2026-04-25 19:55 | 59.68373 | 18.63993 | 4736 ft | 93 kts | 29° |
| 2026-04-25 19:55 | 59.68841 | 18.64884 | 4734 ft | 93 kts | 29° |
| 2026-04-25 19:56 | 59.69311 | 18.65780 | 4733 ft | 92 kts | 30° |
| 2026-04-25 19:56 | 59.69774 | 18.66653 | 4738 ft | 92 kts | 30° |
| 2026-04-25 19:56 | 59.70232 | 18.67517 | 4734 ft | 92 kts | 29° |
| 2026-04-25 19:56 | 59.70699 | 18.68401 | 4735 ft | 92 kts | 30° |
| 2026-04-25 19:57 | 59.71158 | 18.69274 | 4736 ft | 92 kts | 30° |
| 2026-04-25 19:57 | 59.71622 | 18.70159 | 4731 ft | 92 kts | 29° |
| 2026-04-25 19:57 | 59.72083 | 18.71038 | 4731 ft | 92 kts | 29° |
| 2026-04-25 19:57 | 59.72542 | 18.71915 | 4729 ft | 92 kts | 29° |
| 2026-04-25 19:58 | 59.73000 | 18.72787 | 4728 ft | 92 kts | 29° |
| 2026-04-25 19:58 | 59.73466 | 18.73678 | 4726 ft | 92 kts | 29° |
| 2026-04-25 19:58 | 59.73925 | 18.74558 | 4723 ft | 92 kts | 29° |
| 2026-04-25 19:58 | 59.74384 | 18.75437 | 4719 ft | 92 kts | 29° |
| 2026-04-25 19:59 | 59.74847 | 18.76329 | 4718 ft | 93 kts | 30° |
| 2026-04-25 19:59 | 59.75255 | 18.77381 | 4717 ft | 97 kts | 38° |
| 2026-04-25 19:59 | 59.75644 | 18.78479 | 4719 ft | 97 kts | 38° |
| 2026-04-25 19:59 | 59.76031 | 18.79581 | 4718 ft | 97 kts | 38° |
| 2026-04-25 20:00 | 59.76419 | 18.80689 | 4715 ft | 98 kts | 39° |
| 2026-04-25 20:00 | 59.76675 | 18.81421 | 4713 ft | 98 kts | 38° |
| 2026-04-25 20:00 | 59.77192 | 18.82902 | 4711 ft | 98 kts | 39° |
| 2026-04-25 20:00 | 59.77581 | 18.84016 | 4709 ft | 98 kts | 39° |
| 2026-04-25 20:01 | 59.78363 | 18.86260 | 4712 ft | 99 kts | 38° |
| 2026-04-25 20:01 | 59.78754 | 18.87383 | 4709 ft | 99 kts | 38° |
| 2026-04-25 20:01 | 59.79147 | 18.88524 | 4703 ft | 100 kts | 38° |
| 2026-04-25 20:02 | 59.79538 | 18.89639 | 4709 ft | 99 kts | 39° |
| 2026-04-25 20:02 | 59.79932 | 18.90768 | 4709 ft | 97 kts | 37° |
| 2026-04-25 20:02 | 59.80312 | 18.91858 | 4673 ft | 94 kts | 37° |
| 2026-04-25 20:02 | 59.80670 | 18.92919 | 4724 ft | 91 kts | 39° |
| 2026-04-25 20:03 | 59.81036 | 18.93952 | 4712 ft | 92 kts | 38° |
| 2026-04-25 20:03 | 59.81399 | 18.95003 | 4702 ft | 92 kts | 39° |
| 2026-04-25 20:03 | 59.81759 | 18.96026 | 4711 ft | 92 kts | 36° |
| 2026-04-25 20:03 | 59.82119 | 18.97061 | 4726 ft | 90 kts | 37° |
| 2026-04-25 20:04 | 59.82472 | 18.98075 | 4729 ft | 90 kts | 37° |
| 2026-04-25 20:04 | 59.82829 | 18.99107 | 4719 ft | 89 kts | 37° |
| 2026-04-25 20:04 | 59.83176 | 19.00110 | 4724 ft | 88 kts | 37° |
| 2026-04-25 20:04 | 59.83525 | 19.01117 | 4723 ft | 88 kts | 37° |
| 2026-04-25 20:05 | 59.83874 | 19.02120 | 4721 ft | 88 kts | 37° |
| 2026-04-25 20:05 | 59.84225 | 19.03135 | 4718 ft | 89 kts | 37° |
| 2026-04-25 20:05 | 59.84575 | 19.04144 | 4715 ft | 89 kts | 37° |
| 2026-04-25 20:05 | 59.84930 | 19.05172 | 4715 ft | 89 kts | 37° |
| 2026-04-25 20:06 | 59.85278 | 19.06176 | 4716 ft | 89 kts | 37° |
| 2026-04-25 20:06 | 59.85631 | 19.07202 | 4715 ft | 89 kts | 39° |
| 2026-04-25 20:06 | 59.85978 | 19.08227 | 4712 ft | 89 kts | 37° |
| 2026-04-25 20:06 | 59.86324 | 19.09240 | 4711 ft | 89 kts | 37° |
| 2026-04-25 20:07 | 59.86671 | 19.10264 | 4712 ft | 88 kts | 37° |
| 2026-04-25 20:07 | 59.87017 | 19.11282 | 4712 ft | 87 kts | 37° |
| 2026-04-25 20:07 | 59.87357 | 19.12276 | 4711 ft | 88 kts | 38° |
| 2026-04-25 20:07 | 59.87703 | 19.13286 | 4712 ft | 89 kts | 37° |
| 2026-04-25 20:08 | 59.88048 | 19.14298 | 4707 ft | 88 kts | 37° |
| 2026-04-25 20:08 | 59.88432 | 19.15186 | 4704 ft | 80 kts | 24° |
| 2026-04-25 20:08 | 59.88852 | 19.15913 | 4699 ft | 80 kts | 25° |
| 2026-04-25 20:08 | 59.89274 | 19.16632 | 4700 ft | 79 kts | 24° |
| 2026-04-25 20:09 | 59.89693 | 19.17344 | 4698 ft | 79 kts | 24° |
| 2026-04-25 20:09 | 59.90118 | 19.18057 | 4698 ft | 79 kts | 24° |
| 2026-04-25 20:09 | 59.90534 | 19.18754 | 4699 ft | 79 kts | 24° |
| 2026-04-25 20:09 | 59.90956 | 19.19460 | 4699 ft | 79 kts | 24° |
| 2026-04-25 20:10 | 59.91377 | 19.20160 | 4700 ft | 79 kts | 23° |
| 2026-04-25 20:10 | 59.91804 | 19.20847 | 4700 ft | 79 kts | 23° |
| 2026-04-25 20:10 | 59.92233 | 19.21548 | 4700 ft | 80 kts | 23° |
| 2026-04-25 20:10 | 59.92660 | 19.22250 | 4701 ft | 80 kts | 24° |
| 2026-04-25 20:11 | 59.93094 | 19.22969 | 4702 ft | 80 kts | 24° |
| 2026-04-25 20:11 | 59.93527 | 19.23690 | 4701 ft | 81 kts | 24° |
| 2026-04-25 20:11 | 59.93956 | 19.24407 | 4701 ft | 81 kts | 24° |
| 2026-04-25 20:11 | 59.94385 | 19.25124 | 4703 ft | 81 kts | 24° |
| 2026-04-25 20:12 | 59.94821 | 19.25852 | 4708 ft | 81 kts | 24° |
| 2026-04-25 20:12 | 59.95253 | 19.26575 | 4714 ft | 81 kts | 24° |
| 2026-04-25 20:12 | 59.95693 | 19.27310 | 4718 ft | 82 kts | 24° |
| 2026-04-25 20:12 | 59.95986 | 19.27801 | 4717 ft | 82 kts | 24° |
| 2026-04-25 20:13 | 59.96571 | 19.28784 | 4712 ft | 83 kts | 25° |
| 2026-04-25 20:13 | 59.97011 | 19.29525 | 4709 ft | 82 kts | 24° |
| 2026-04-25 20:13 | 59.97453 | 19.30266 | 4708 ft | 82 kts | 25° |
| 2026-04-25 20:13 | 59.97893 | 19.31003 | 4683 ft | 85 kts | 25° |
| 2026-04-25 20:14 | 59.98364 | 19.31783 | 4551 ft | 91 kts | 26° |
| 2026-04-25 20:14 | 59.98838 | 19.32698 | 4402 ft | 103 kts | 42° |
| 2026-04-25 20:14 | 59.98972 | 19.34256 | 4250 ft | 123 kts | 72° |
| 2026-04-25 20:14 | 59.98950 | 19.35945 | 4114 ft | 124 kts | 74° |
| 2026-04-25 20:15 | 59.98909 | 19.37654 | 4060 ft | 120 kts | 74° |
| 2026-04-25 20:15 | 59.98865 | 19.39287 | 4047 ft | 116 kts | 73° |
| 2026-04-25 20:15 | 59.98825 | 19.40898 | 4036 ft | 115 kts | 73° |
| 2026-04-25 20:15 | 59.98789 | 19.42476 | 4027 ft | 114 kts | 72° |
| 2026-04-25 20:16 | 59.98750 | 19.44071 | 4023 ft | 114 kts | 72° |
| 2026-04-25 20:16 | 59.98712 | 19.45636 | 4018 ft | 113 kts | 72° |
| 2026-04-25 20:16 | 59.98673 | 19.47206 | 4018 ft | 113 kts | 72° |
| 2026-04-25 20:16 | 59.98637 | 19.48779 | 4022 ft | 113 kts | 72° |
| 2026-04-25 20:17 | 59.98595 | 19.50351 | 3983 ft | 116 kts | 73° |
| 2026-04-25 20:17 | 59.98543 | 19.51935 | 3851 ft | 111 kts | 73° |
| 2026-04-25 20:17 | 59.98490 | 19.53445 | 3728 ft | 108 kts | 72° |
| 2026-04-25 20:17 | 59.98443 | 19.54946 | 3606 ft | 107 kts | 72° |
| 2026-04-25 20:18 | 59.98397 | 19.56426 | 3486 ft | 106 kts | 71° |
| 2026-04-25 20:18 | 59.98351 | 19.57877 | 3369 ft | 105 kts | 71° |
| 2026-04-25 20:18 | 59.98305 | 19.59348 | 3250 ft | 106 kts | 71° |
| 2026-04-25 20:18 | 59.98261 | 19.60817 | 3137 ft | 106 kts | 72° |
| 2026-04-25 20:19 | 59.98213 | 19.62285 | 3023 ft | 107 kts | 72° |
| 2026-04-25 20:19 | 59.98166 | 19.63765 | 2902 ft | 107 kts | 73° |
| 2026-04-25 20:19 | 59.98121 | 19.65291 | 2785 ft | 113 kts | 75° |
| 2026-04-25 20:19 | 59.98071 | 19.66901 | 2655 ft | 117 kts | 76° |
| 2026-04-25 20:20 | 59.98017 | 19.68533 | 2523 ft | 119 kts | 77° |
| 2026-04-25 20:20 | 59.97959 | 19.70195 | 2391 ft | 120 kts | 77° |
| 2026-04-25 20:20 | 59.97899 | 19.71870 | 2253 ft | 121 kts | 77° |
| 2026-04-25 20:20 | 59.97842 | 19.73545 | 2121 ft | 122 kts | 77° |
| 2026-04-25 20:21 | 59.97782 | 19.75226 | 2022 ft | 119 kts | 78° |
| 2026-04-25 20:21 | 59.97903 | 19.76645 | 2013 ft | 92 kts | 39° |
| 2026-04-25 20:21 | 59.98356 | 19.77398 | 1998 ft | 82 kts | 20° |
| 2026-04-25 20:21 | 59.98844 | 19.77966 | 1959 ft | 81 kts | 17° |
| 2026-04-25 20:22 | 59.99344 | 19.78488 | 1927 ft | 81 kts | 16° |
| 2026-04-25 20:22 | 59.99679 | 19.78818 | 1906 ft | 81 kts | 14° |
| 2026-04-25 20:22 | 60.00354 | 19.79456 | 1870 ft | 80 kts | 14° |
| 2026-04-25 20:22 | 60.00869 | 19.79921 | 1832 ft | 81 kts | 14° |
| 2026-04-25 20:23 | 60.01385 | 19.80383 | 1797 ft | 82 kts | 13° |
| 2026-04-25 20:23 | 60.01903 | 19.80838 | 1769 ft | 82 kts | 13° |
| 2026-04-25 20:23 | 60.02435 | 19.81293 | 1734 ft | 83 kts | 13° |
| 2026-04-25 20:23 | 60.02969 | 19.81758 | 1704 ft | 83 kts | 13° |
| 2026-04-25 20:24 | 60.03498 | 19.82223 | 1673 ft | 83 kts | 14° |
| 2026-04-25 20:24 | 60.04026 | 19.82688 | 1652 ft | 83 kts | 14° |
| 2026-04-25 20:24 | 60.04550 | 19.83156 | 1650 ft | 82 kts | 15° |
| 2026-04-25 20:24 | 60.05072 | 19.83630 | 1651 ft | 81 kts | 14° |
| 2026-04-25 20:25 | 60.05595 | 19.84095 | 1532 ft | 80 kts | 15° |
| 2026-04-25 20:25 | 60.06083 | 19.84527 | 1409 ft | 74 kts | 14° |
| 2026-04-25 20:25 | 60.06549 | 19.84926 | 1292 ft | 72 kts | 13° |
| 2026-04-25 20:25 | 60.07011 | 19.85319 | 1177 ft | 72 kts | 13° |
| 2026-04-25 20:26 | 60.07486 | 19.85723 | 1059 ft | 75 kts | 14° |
| 2026-04-25 20:26 | 60.07960 | 19.86139 | 950 ft | 72 kts | 14° |
| 2026-04-25 20:26 | 60.08406 | 19.86524 | 835 ft | 68 kts | 13° |
| 2026-04-25 20:26 | 60.08834 | 19.86894 | 720 ft | 65 kts | 14° |
| 2026-04-25 20:27 | 60.09221 | 19.87233 | 619 ft | 57 kts | 11° |
| 2026-04-25 20:27 | 60.09605 | 19.87546 | 528 ft | 60 kts | 12° |
| 2026-04-25 20:27 | 60.09977 | 19.87889 | 433 ft | 58 kts | 13° |
| 2026-04-25 20:27 | 60.10352 | 19.88216 | 328 ft | 60 kts | 12° |
| 2026-04-25 20:28 | 60.10749 | 19.88561 | 243 ft | 62 kts | 17° |
| 2026-04-25 20:28 | 60.11127 | 19.88874 | 120 ft | 55 kts | 15° |
| 2026-04-25 20:28 | 60.11475 | 19.89176 | 36 ft | 52 kts | 16° |
| 2026-04-25 20:28 | 60.11798 | 19.89447 | 9 ft | 45 kts | 21° |
| 2026-04-25 20:29 | 60.12032 | 19.89650 | 9 ft | 29 kts | 22° |
| 2026-04-25 20:29 | 60.12186 | 19.89779 | 9 ft | 22 kts | 23° |
| 2026-04-25 20:29 | 60.12325 | 19.89900 | 9 ft | 21 kts | 20° |
| 2026-04-25 20:29 | 60.12452 | 19.90011 | 10 ft | 19 kts | 23° |
| 2026-04-25 20:30 | 60.12559 | 19.90125 | 10 ft | 15 kts | 63° |
| 2026-04-25 20:30 | 60.12543 | 19.90260 | 10 ft | 8 kts | 114° |
| 2026-04-25 20:30 | 60.12519 | 19.90371 | 10 ft | 8 kts | 112° |
| 2026-04-25 20:30 | 60.12495 | 19.90486 | 10 ft | 8 kts | 114° |
| 2026-04-25 20:31 | 60.12445 | 19.90499 | 10 ft | 8 kts | 199° |
| 2026-04-25 20:31 | 60.12403 | 19.90580 | 10 ft | 10 kts | 148° |
| 2026-04-25 20:31 | 60.12334 | 19.90551 | 10 ft | 6 kts | 173° |
| 2026-04-25 20:31 | 60.12298 | 19.90566 | 10 ft | 2 kts | 94° |